Time;durP1;ratioP1;P1;durP2;ratioP2;P2;SDS_P1;SDS_P2;PMS_P1;PMS_P2;Temp;Humidity;BMP_temperature;BMP_pressure;BME280_temperature;BME280_humidity;BME280_pressure;Samples;Min_cycle;Max_cycle;Signal;HPM_P1;HPM_P2
2021/11/24 00:00:45;;;;;;;6.95;5.68;;;4.10;77.00;;;;;;4993975;28;20041;-60
2021/11/24 00:03:11;;;;;;;7.72;5.45;;;4.10;76.70;;;;;;4993777;28;20038;-61
2021/11/24 00:05:37;;;;;;;7.00;5.13;;;4.10;76.50;;;;;;4993387;28;20035;-60
2021/11/24 00:08:04;;;;;;;6.50;5.20;;;4.20;76.30;;;;;;4974567;28;20592;-60
2021/11/24 00:10:35;;;;;;;6.50;5.30;;;4.20;76.30;;;;;;4974642;28;20043;-60
2021/11/24 00:13:02;;;;;;;5.97;5.35;;;4.20;76.20;;;;;;4974257;28;20030;-61
2021/11/24 00:15:28;;;;;;;6.95;5.65;;;4.20;76.00;;;;;;4975312;28;20023;-60
2021/11/24 00:17:54;;;;;;;6.80;4.78;;;4.30;75.80;;;;;;4977947;28;20153;-61
2021/11/24 00:20:19;;;;;;;7.15;5.38;;;4.30;75.70;;;;;;4977828;28;20031;-59
2021/11/24 00:22:45;;;;;;;6.10;5.22;;;4.30;75.50;;;;;;4982502;28;20418;-58
2021/11/24 00:25:11;;;;;;;5.75;4.68;;;4.40;75.30;;;;;;4996912;28;20061;-60
2021/11/24 00:27:37;;;;;;;5.75;5.18;;;4.40;75.30;;;;;;4997396;28;20029;-59
2021/11/24 00:30:06;;;;;;;5.50;4.60;;;4.40;75.20;;;;;;4997157;28;20112;-61
2021/11/24 00:32:32;;;;;;;7.55;5.00;;;4.40;74.90;;;;;;4997331;28;20029;-60
2021/11/24 00:34:58;;;;;;;7.78;6.18;;;4.40;74.90;;;;;;4997097;28;20359;-60
2021/11/24 00:37:23;;;;;;;7.22;4.95;;;4.40;74.90;;;;;;4996965;28;20054;-60
2021/11/24 00:39:49;;;;;;;5.43;4.65;;;4.50;74.70;;;;;;4986150;28;20078;-60
2021/11/24 00:42:16;;;;;;;5.07;4.45;;;4.50;74.70;;;;;;4977546;28;20019;-59
2021/11/24 00:44:42;;;;;;;7.38;5.70;;;4.50;75.30;;;;;;4977478;28;20490;-60
2021/11/24 00:47:08;;;;;;;5.65;4.53;;;4.50;74.70;;;;;;4992349;28;20034;-59
2021/11/24 00:49:35;;;;;;;6.00;4.85;;;4.50;74.70;;;;;;4977670;28;20027;-58
2021/11/24 00:52:02;;;;;;;6.43;5.50;;;4.50;74.60;;;;;;4977261;28;20019;-60
2021/11/24 00:54:28;;;;;;;6.43;5.60;;;4.60;74.70;;;;;;4977865;28;20037;-60
2021/11/24 00:56:53;;;;;;;4.90;4.30;;;4.60;74.60;;;;;;4996582;28;20466;-60
2021/11/24 00:59:19;;;;;;;6.50;4.97;;;4.60;74.50;;;;;;4996692;28;20035;-59
2021/11/24 01:01:45;;;;;;;6.25;5.53;;;4.60;74.60;;;;;;4996192;28;20034;-57
2021/11/24 01:04:10;;;;;;;5.18;4.57;;;4.70;74.40;;;;;;4996370;28;20038;-59
2021/11/24 01:06:36;;;;;;;5.72;5.13;;;4.70;74.20;;;;;;4996654;28;20051;-60
2021/11/24 01:09:03;;;;;;;6.72;5.35;;;4.70;74.00;;;;;;4996461;28;20026;-61
2021/11/24 01:11:28;;;;;;;7.28;5.15;;;4.80;73.90;;;;;;4981740;28;20498;-59
2021/11/24 01:13:54;;;;;;;5.68;4.78;;;4.80;73.60;;;;;;4977127;28;20030;-59
2021/11/24 01:16:20;;;;;;;5.72;4.85;;;4.80;73.50;;;;;;4977143;28;20034;-58
2021/11/24 01:18:46;;;;;;;5.38;4.70;;;4.90;73.50;;;;;;4976822;28;20034;-60
2021/11/24 01:21:12;;;;;;;5.95;4.32;;;4.90;73.40;;;;;;4976787;28;20114;-60
2021/11/24 01:23:38;;;;;;;6.10;4.90;;;4.90;73.40;;;;;;4977108;28;20018;-61
2021/11/24 01:26:04;;;;;;;6.05;5.05;;;4.90;73.30;;;;;;4991581;28;20026;-60
2021/11/24 01:28:30;;;;;;;7.03;5.40;;;4.90;73.30;;;;;;4995567;28;20504;-60
2021/11/24 01:30:55;;;;;;;7.45;5.07;;;4.90;73.20;;;;;;4996141;28;20019;-60
2021/11/24 01:33:21;;;;;;;5.75;4.85;;;4.90;73.10;;;;;;4996160;28;20474;-60
2021/11/24 01:35:47;;;;;;;6.53;4.65;;;4.90;73.00;;;;;;4996086;28;20027;-58
2021/11/24 01:38:12;;;;;;;6.20;5.20;;;4.90;72.90;;;;;;4989088;28;20113;-60
2021/11/24 01:40:38;;;;;;;5.97;4.75;;;4.90;73.00;;;;;;4993550;28;20078;-60
2021/11/24 01:43:08;;;;;;;7.18;5.65;;;4.90;73.00;;;;;;4994676;28;20105;-60
2021/11/24 01:45:34;;;;;;;6.57;5.72;;;4.90;73.00;;;;;;4995945;28;20037;-60
2021/11/24 01:48:00;;;;;;;6.50;5.45;;;4.90;73.00;;;;;;4995655;28;20026;-60
2021/11/24 01:50:26;;;;;;;7.10;5.40;;;4.90;73.00;;;;;;4995731;28;20513;-59
2021/11/24 01:52:51;;;;;;;6.45;5.30;;;5.00;72.80;;;;;;4994078;28;20022;-57
2021/11/24 01:55:17;;;;;;;6.93;5.97;;;5.00;72.70;;;;;;4995071;28;20093;-60
2021/11/24 01:57:46;;;;;;;7.43;5.72;;;5.00;72.60;;;;;;4995195;28;20030;-60
2021/11/24 02:00:16;;;;;;;6.18;5.45;;;5.10;72.40;;;;;;4995695;28;20022;-61
2021/11/24 02:02:43;;;;;;;6.82;6.13;;;5.10;72.20;;;;;;4995562;28;20030;-61
2021/11/24 02:05:09;;;;;;;8.55;6.13;;;5.00;72.20;;;;;;4995589;28;20525;-60
2021/11/24 02:07:35;;;;;;;6.47;5.55;;;5.10;72.40;;;;;;4994853;28;20022;-61
2021/11/24 02:10:01;;;;;;;6.20;5.07;;;5.10;72.60;;;;;;4995442;28;20458;-61
2021/11/24 02:12:27;;;;;;;5.82;5.05;;;5.10;72.60;;;;;;4995260;28;20149;-61
2021/11/24 02:14:53;;;;;;;6.15;5.22;;;5.10;72.70;;;;;;4994647;28;20069;-61
2021/11/24 02:17:19;;;;;;;7.57;5.82;;;5.10;72.80;;;;;;4995465;28;20030;-61
2021/11/24 02:19:45;;;;;;;7.60;6.70;;;5.10;72.80;;;;;;4995138;28;20125;-60
2021/11/24 02:22:11;;;;;;;7.63;6.82;;;5.10;72.70;;;;;;4995190;28;20027;-59
2021/11/24 02:24:38;;;;;;;8.02;6.85;;;5.10;72.30;;;;;;4994617;28;20030;-59
2021/11/24 02:27:07;;;;;;;7.95;6.82;;;5.00;72.10;;;;;;4995222;28;20049;-60
2021/11/24 02:29:33;;;;;;;8.90;7.22;;;5.00;72.30;;;;;;4994943;28;20030;-60
2021/11/24 02:32:01;;;;;;;7.15;5.90;;;5.00;72.20;;;;;;4975645;28;20027;-59
2021/11/24 02:34:28;;;;;;;7.55;6.22;;;5.00;72.40;;;;;;4975782;28;20030;-57
2021/11/24 02:36:55;;;;;;;7.60;6.10;;;5.00;72.60;;;;;;4984892;28;20035;-60
2021/11/24 02:39:21;;;;;;;8.65;7.20;;;5.00;72.80;;;;;;4975814;28;20026;-60
2021/11/24 02:41:47;;;;;;;8.93;7.22;;;5.00;72.90;;;;;;4993150;28;20057;-61
2021/11/24 02:44:16;;;;;;;8.20;6.88;;;5.00;73.00;;;;;;4994683;28;20038;-61
2021/11/24 02:46:43;;;;;;;8.48;7.00;;;5.00;73.00;;;;;;4994185;28;20018;-61
2021/11/24 02:49:09;;;;;;;11.52;8.38;;;5.10;73.70;;;;;;4975465;28;20031;-60
2021/11/24 02:51:35;;;;;;;10.38;8.57;;;5.10;73.10;;;;;;4975365;28;20042;-60
2021/11/24 02:54:00;;;;;;;10.80;8.95;;;5.10;73.10;;;;;;4976284;28;20387;-59
2021/11/24 02:56:26;;;;;;;11.90;8.85;;;5.20;73.20;;;;;;4994269;28;20046;-60
2021/11/24 02:58:52;;;;;;;12.02;8.82;;;5.20;73.20;;;;;;4993417;28;20463;-60
2021/11/24 03:01:17;;;;;;;8.30;6.10;;;5.20;73.10;;;;;;4993503;28;20030;-59
2021/11/24 03:03:43;;;;;;;7.00;5.50;;;5.20;72.90;;;;;;4993530;28;20498;-60
2021/11/24 03:06:09;;;;;;;7.25;5.60;;;5.20;72.80;;;;;;4993850;28;20080;-60
2021/11/24 03:08:35;;;;;;;6.72;5.30;;;5.20;72.70;;;;;;4994404;28;20026;-60
2021/11/24 03:11:00;;;;;;;6.07;5.32;;;5.10;72.80;;;;;;4992222;28;20134;-57
2021/11/24 03:13:26;;;;;;;7.10;5.10;;;5.10;72.90;;;;;;4991080;28;20033;-60
2021/11/24 03:15:52;;;;;;;6.13;4.78;;;5.10;72.80;;;;;;4994363;28;20019;-60
2021/11/24 03:18:18;;;;;;;5.72;5.13;;;5.10;72.70;;;;;;4994494;28;20112;-59
2021/11/24 03:20:43;;;;;;;5.43;4.93;;;5.10;72.60;;;;;;4994612;28;20106;-60
2021/11/24 03:23:09;;;;;;;6.13;4.80;;;5.10;72.60;;;;;;4984287;28;20019;-61
2021/11/24 03:25:35;;;;;;;7.18;5.13;;;5.10;73.20;;;;;;4990404;28;20061;-60
2021/11/24 03:28:02;;;;;;;7.20;6.00;;;5.00;72.50;;;;;;4994623;28;20526;-60
2021/11/24 03:30:29;;;;;;;7.57;5.40;;;5.00;72.50;;;;;;4994284;28;20019;-60
2021/11/24 03:32:56;;;;;;;7.03;6.20;;;5.10;72.50;;;;;;4994195;28;20027;-60
2021/11/24 03:35:23;;;;;;;6.90;5.40;;;5.10;72.30;;;;;;4994143;28;20433;-60
2021/11/24 03:37:52;;;;;;;7.40;6.18;;;5.20;72.20;;;;;;4994145;28;20045;-61
2021/11/24 03:40:22;;;;;;;9.75;8.32;;;5.20;72.10;;;;;;4993056;28;20042;-61
2021/11/24 03:42:49;;;;;;;9.25;7.15;;;5.30;72.20;;;;;;4994161;28;20030;-60
2021/11/24 03:45:18;;;;;;;10.43;7.57;;;5.30;72.10;;;;;;4993937;28;20036;-59
2021/11/24 03:47:44;;;;;;;10.02;7.35;;;5.40;72.20;;;;;;4993863;28;20023;-58
2021/11/24 03:50:11;;;;;;;10.30;7.22;;;5.40;72.10;;;;;;4994716;28;20030;-60
2021/11/24 03:52:37;;;;;;;11.73;8.07;;;5.30;72.00;;;;;;4995461;28;20025;-59
2021/11/24 03:55:05;;;;;;;9.52;7.50;;;5.30;71.90;;;;;;4997715;28;20026;-59
2021/11/24 03:57:30;;;;;;;9.30;8.15;;;5.30;71.80;;;;;;4997263;28;20105;-60
2021/11/24 03:59:56;;;;;;;9.02;7.20;;;5.30;71.80;;;;;;4997737;28;20459;-60
2021/11/24 04:02:22;;;;;;;9.70;7.57;;;5.30;71.80;;;;;;4985042;28;20058;-60
2021/11/24 04:04:48;;;;;;;10.07;7.47;;;5.30;71.90;;;;;;4997048;28;20042;-61
2021/11/24 04:07:14;;;;;;;11.05;8.45;;;5.30;72.10;;;;;;4996882;28;20027;-60
2021/11/24 04:09:39;;;;;;;11.48;8.45;;;5.20;72.10;;;;;;4997325;28;20028;-61
2021/11/24 04:12:06;;;;;;;9.93;7.45;;;5.30;72.00;;;;;;4991489;28;20054;-60
2021/11/24 04:14:32;;;;;;;9.80;7.30;;;5.30;72.20;;;;;;4996862;28;20037;-60
2021/11/24 04:16:57;;;;;;;10.07;7.75;;;5.20;72.20;;;;;;4996855;28;20022;-60
2021/11/24 04:19:23;;;;;;;9.13;7.15;;;5.20;72.20;;;;;;4996831;28;20034;-60
2021/11/24 04:21:49;;;;;;;9.20;7.25;;;5.20;72.30;;;;;;4977785;28;20018;-59
2021/11/24 04:24:14;;;;;;;10.90;8.30;;;5.20;72.60;;;;;;4996048;28;20066;-60
2021/11/24 04:26:40;;;;;;;9.25;7.38;;;5.20;72.40;;;;;;4996495;28;20092;-59
2021/11/24 04:29:06;;;;;;;11.38;8.57;;;5.20;72.50;;;;;;4995840;28;20024;-59
2021/11/24 04:31:32;;;;;;;9.07;7.20;;;5.20;72.60;;;;;;4996862;28;20411;-60
2021/11/24 04:33:57;;;;;;;10.43;6.75;;;5.20;72.50;;;;;;4996567;28;20089;-59
2021/11/24 04:36:23;;;;;;;8.63;6.95;;;5.30;72.60;;;;;;4996624;28;20053;-59
2021/11/24 04:38:49;;;;;;;11.13;7.43;;;5.30;72.40;;;;;;4996521;28;20105;-59
2021/11/24 04:41:15;;;;;;;13.05;9.20;;;5.30;72.40;;;;;;4996351;28;20584;-60
2021/11/24 04:43:45;;;;;;;12.90;8.43;;;5.30;72.50;;;;;;4995580;28;20462;-60
2021/11/24 04:46:16;;;;;;;13.38;7.25;;;5.20;72.40;;;;;;4996433;28;20033;-61
2021/11/24 04:48:42;;;;;;;10.80;7.78;;;5.30;72.60;;;;;;4994245;28;20352;-59
2021/11/24 04:51:08;;;;;;;8.73;6.97;;;5.20;72.50;;;;;;4995265;28;20018;-60
2021/11/24 04:53:34;;;;;;;9.60;7.45;;;5.20;72.60;;;;;;4995892;28;20030;-60
2021/11/24 04:56:00;;;;;;;10.68;7.30;;;5.20;72.60;;;;;;4992829;28;20030;-58
2021/11/24 04:58:27;;;;;;;12.65;9.98;;;5.20;72.70;;;;;;4992256;28;20502;-58
2021/11/24 05:00:53;;;;;;;11.25;8.55;;;5.20;72.90;;;;;;4992942;28;20022;-59
2021/11/24 05:03:19;;;;;;;13.77;8.70;;;5.20;72.90;;;;;;4995466;28;20512;-60
2021/11/24 05:05:45;;;;;;;13.50;9.40;;;5.30;72.80;;;;;;4996453;28;20027;-59
2021/11/24 05:08:11;;;;;;;11.55;9.27;;;5.30;72.60;;;;;;4996345;28;20034;-60
2021/11/24 05:10:37;;;;;;;10.65;8.55;;;5.30;72.40;;;;;;4996732;28;20386;-59
2021/11/24 05:13:07;;;;;;;15.95;10.30;;;5.30;72.30;;;;;;4996721;28;20443;-59
2021/11/24 05:15:36;;;;;;;14.23;9.52;;;5.40;72.40;;;;;;4996459;28;20027;-58
2021/11/24 05:18:05;;;;;;;13.10;9.60;;;5.40;72.30;;;;;;4995753;28;20375;-59
2021/11/24 05:20:32;;;;;;;12.07;9.07;;;5.40;72.30;;;;;;4996537;28;20054;-60
2021/11/24 05:23:01;;;;;;;18.10;11.70;;;5.30;72.20;;;;;;4996317;28;20022;-60
2021/11/24 05:25:28;;;;;;;13.45;10.07;;;5.30;72.40;;;;;;4995910;28;20038;-59
2021/11/24 05:27:54;;;;;;;17.70;11.88;;;5.30;72.50;;;;;;4996451;28;20370;-60
2021/11/24 05:30:21;;;;;;;16.27;10.93;;;5.40;73.10;;;;;;4996198;28;20022;-61
2021/11/24 05:32:47;;;;;;;15.35;11.50;;;5.40;72.40;;;;;;4996142;28;20382;-60
2021/11/24 05:35:13;;;;;;;16.40;13.05;;;5.40;72.30;;;;;;4987681;28;20026;-60
2021/11/24 05:37:38;;;;;;;16.95;10.65;;;5.40;72.20;;;;;;4976581;28;20101;-60
2021/11/24 05:40:05;;;;;;;15.18;10.68;;;5.50;72.10;;;;;;4976401;28;20046;-59
2021/11/24 05:42:31;;;;;;;13.30;10.65;;;5.50;72.10;;;;;;4976556;28;20031;-60
2021/11/24 05:45:12;;;;;;;14.27;11.45;;;5.50;72.00;;;;;;4976494;28;20062;-59
2021/11/24 05:47:54;;;;;;;13.82;10.93;;;5.50;71.90;;;;;;4987526;28;20053;-59
2021/11/24 05:50:26;;;;;;;13.00;9.75;;;5.50;71.80;;;;;;4995506;28;20030;-59
2021/11/24 05:52:53;;;;;;;12.45;9.48;;;5.50;71.70;;;;;;4995081;28;20379;-60
2021/11/24 05:55:23;;;;;;;13.07;9.60;;;5.50;71.60;;;;;;4995584;28;20470;-59
2021/11/24 05:57:50;;;;;;;14.80;10.23;;;5.50;71.30;;;;;;4995552;28;20026;-60
2021/11/24 06:00:17;;;;;;;14.88;11.07;;;5.50;71.10;;;;;;4995275;28;20107;-60
2021/11/24 06:02:44;;;;;;;14.90;11.07;;;5.40;71.50;;;;;;4992659;28;20061;-60
2021/11/24 06:05:10;;;;;;;13.43;8.90;;;5.30;71.00;;;;;;4995703;28;20104;-59
2021/11/24 06:07:37;;;;;;;12.68;9.38;;;5.20;71.10;;;;;;4995208;28;20022;-60
2021/11/24 06:10:08;;;;;;;13.57;9.43;;;5.20;71.40;;;;;;4983170;28;20099;-61
2021/11/24 06:12:34;;;;;;;;;;;5.20;71.50;;;;;;4976296;28;20125;-60
2021/11/24 06:15:00;;;;;;;11.65;9.38;;;5.10;71.60;;;;;;4975830;28;19952;-59
2021/11/24 06:17:26;;;;;;;11.85;9.30;;;5.20;71.90;;;;;;4981983;28;20027;-61
2021/11/24 06:19:52;;;;;;;12.57;9.40;;;5.20;71.80;;;;;;4984335;28;20383;-60
2021/11/24 06:22:17;;;;;;;11.10;9.27;;;5.20;72.50;;;;;;4988574;28;20033;-60
2021/11/24 06:24:43;;;;;;;14.23;10.15;;;5.30;71.90;;;;;;4994091;28;20054;-57
2021/11/24 06:27:09;;;;;;;10.55;9.35;;;5.30;71.80;;;;;;4979182;28;20093;-56
2021/11/24 06:29:35;;;;;;;12.13;9.90;;;5.30;71.80;;;;;;4978626;28;20468;-56
2021/11/24 06:32:01;;;;;;;12.48;10.60;;;5.30;71.70;;;;;;4990308;28;20110;-57
2021/11/24 06:34:27;;;;;;;15.23;11.70;;;5.30;71.50;;;;;;4980406;28;20034;-52
2021/11/24 06:36:53;;;;;;;14.57;12.18;;;5.30;71.50;;;;;;4986636;28;20026;-57
2021/11/24 06:39:26;;;;;;;12.25;10.82;;;5.20;71.20;;;;;;4984307;28;20534;-59
2021/11/24 06:41:55;;;;;;;14.30;10.05;;;5.20;71.40;;;;;;4978583;28;20026;-59
2021/11/24 06:44:22;;;;;;;14.32;10.13;;;5.10;71.40;;;;;;4977402;28;20035;-59
2021/11/24 06:46:48;;;;;;;20.27;16.15;;;5.10;71.60;;;;;;4973121;28;20062;-59
2021/11/24 06:49:14;;;;;;;20.02;15.40;;;5.10;71.60;;;;;;4977365;28;20158;-58
2021/11/24 06:51:40;;;;;;;21.48;16.90;;;5.10;71.60;;;;;;4979576;28;20023;-54
2021/11/24 06:54:06;;;;;;;23.40;18.15;;;5.00;71.60;;;;;;4979507;28;20030;-59
2021/11/24 06:56:31;;;;;;;22.52;19.15;;;5.10;71.70;;;;;;4981623;28;20553;-58
2021/11/24 06:58:57;;;;;;;22.83;19.15;;;5.10;71.60;;;;;;4980007;28;20673;-59
2021/11/24 07:01:23;;;;;;;26.50;20.33;;;5.10;71.60;;;;;;4980800;28;20087;-58
2021/11/24 07:03:48;;;;;;;26.90;20.60;;;5.00;71.50;;;;;;4977925;28;20026;-58
2021/11/24 07:06:15;;;;;;;31.23;24.00;;;5.10;71.60;;;;;;4981073;28;20030;-59
2021/11/24 07:08:42;;;;;;;30.42;22.80;;;5.00;71.50;;;;;;4980625;28;20019;-59
2021/11/24 07:11:08;;;;;;;31.52;23.92;;;5.10;71.50;;;;;;4983774;28;20027;-59
2021/11/24 07:13:34;;;;;;;30.70;22.15;;;5.00;71.70;;;;;;4976456;28;20121;-57
2021/11/24 07:16:00;;;;;;;27.67;20.15;;;5.00;71.70;;;;;;4972460;28;20058;-58
2021/11/24 07:18:26;;;;;;;28.73;20.60;;;5.00;71.90;;;;;;4979942;28;20113;-59
2021/11/24 07:20:51;;;;;;;25.55;18.70;;;5.10;72.00;;;;;;4976125;28;20057;-56
2021/11/24 07:23:17;;;;;;;26.35;19.90;;;5.10;72.00;;;;;;4977610;28;20810;-58
2021/11/24 07:25:43;;;;;;;23.92;17.98;;;5.10;72.20;;;;;;4973340;28;20037;-59
2021/11/24 07:28:09;;;;;;;26.65;19.10;;;5.10;72.30;;;;;;4967654;28;20035;-58
2021/11/24 07:30:35;;;;;;;23.13;17.80;;;5.10;72.30;;;;;;4967578;28;20046;-57
2021/11/24 07:33:01;;;;;;;25.35;17.48;;;5.10;72.30;;;;;;4973417;28;20030;-59
2021/11/24 07:35:27;;;;;;;26.55;16.42;;;5.10;72.30;;;;;;4971652;28;20036;-59
2021/11/24 07:37:53;;;;;;;20.23;14.65;;;5.10;72.30;;;;;;4964796;28;20030;-58
2021/11/24 07:40:21;;;;;;;19.08;14.30;;;5.10;72.30;;;;;;4966286;28;20081;-58
2021/11/24 07:42:49;;;;;;;18.08;12.38;;;5.20;72.60;;;;;;4966183;28;20116;-59
2021/11/24 07:45:15;;;;;;;17.92;13.18;;;5.20;72.60;;;;;;4970685;28;20039;-59
2021/11/24 07:47:41;;;;;;;16.17;12.07;;;5.30;72.80;;;;;;4968810;28;20030;-59
2021/11/24 07:50:07;;;;;;;15.32;11.15;;;5.30;72.80;;;;;;4973440;28;20118;-58
2021/11/24 07:52:33;;;;;;;17.45;12.63;;;5.50;73.00;;;;;;4969049;28;20026;-60
2021/11/24 07:54:58;;;;;;;14.88;11.52;;;5.60;72.70;;;;;;4972518;28;20026;-60
2021/11/24 07:57:24;;;;;;;14.32;11.07;;;5.70;72.60;;;;;;4969740;28;20043;-60
2021/11/24 07:59:50;;;;;;;16.25;11.82;;;5.70;72.30;;;;;;4964344;28;20030;-60
2021/11/24 08:02:15;;;;;;;19.85;13.75;;;5.80;72.10;;;;;;4966197;28;20069;-59
2021/11/24 08:04:41;;;;;;;20.48;14.45;;;5.90;71.90;;;;;;4969343;28;20066;-58
2021/11/24 08:07:07;;;;;;;20.38;14.02;;;6.00;71.70;;;;;;4976756;28;20423;-58
2021/11/24 08:09:33;;;;;;;20.70;16.48;;;6.00;71.20;;;;;;4973432;28;20042;-59
2021/11/24 08:11:59;;;;;;;23.50;18.13;;;6.10;71.00;;;;;;4968824;28;20026;-59
2021/11/24 08:14:26;;;;;;;23.60;16.75;;;6.20;70.50;;;;;;4972617;28;20026;-59
2021/11/24 08:16:53;;;;;;;25.88;18.50;;;6.20;70.00;;;;;;4972573;28;20488;-59
2021/11/24 08:19:18;;;;;;;25.38;17.58;;;6.20;70.10;;;;;;4972037;28;20707;-59
2021/11/24 08:21:46;;;;;;;22.20;15.95;;;6.20;69.90;;;;;;4970562;28;20039;-57
2021/11/24 08:24:12;;;;;;;19.42;13.85;;;6.30;69.80;;;;;;4976062;28;20113;-59
2021/11/24 08:26:40;;;;;;;17.67;13.63;;;6.30;70.10;;;;;;4970591;28;20038;-59
2021/11/24 08:29:10;;;;;;;21.63;15.95;;;6.40;69.30;;;;;;4973809;28;20030;-59
2021/11/24 08:31:37;;;;;;;21.73;17.80;;;6.40;69.00;;;;;;4972733;28;20023;-58
2021/11/24 08:34:03;;;;;;;26.83;21.45;;;6.40;68.70;;;;;;4970966;28;20064;-59
2021/11/24 08:36:30;;;;;;;22.60;18.60;;;6.40;68.70;;;;;;4969942;28;20157;-59
2021/11/24 08:38:56;;;;;;;19.92;16.38;;;6.40;68.90;;;;;;4979100;28;20042;-58
2021/11/24 08:41:22;;;;;;;22.60;16.48;;;6.40;69.10;;;;;;4968196;28;20043;-59
2021/11/24 08:43:48;;;;;;;19.45;16.20;;;6.50;69.40;;;;;;4971997;28;20041;-59
2021/11/24 08:46:13;;;;;;;20.17;14.02;;;6.50;69.30;;;;;;4970749;28;20089;-59
2021/11/24 08:48:39;;;;;;;20.70;15.95;;;6.50;69.40;;;;;;4967821;28;20121;-59
2021/11/24 08:51:05;;;;;;;21.50;16.42;;;6.50;69.50;;;;;;4974000;28;20034;-58
2021/11/24 08:53:31;;;;;;;19.80;14.48;;;6.50;69.40;;;;;;4974884;28;20558;-59
2021/11/24 08:55:57;;;;;;;21.77;15.68;;;6.50;69.40;;;;;;4968928;28;20088;-59
2021/11/24 08:58:23;;;;;;;22.63;17.98;;;6.60;69.60;;;;;;4970072;28;20034;-60
2021/11/24 09:00:49;;;;;;;23.38;16.02;;;6.70;69.60;;;;;;4965927;28;20098;-60
2021/11/24 09:03:17;;;;;;;22.30;15.18;;;6.70;69.40;;;;;;4975795;28;20087;-59
2021/11/24 09:05:44;;;;;;;19.38;13.43;;;6.80;69.30;;;;;;4972263;28;20061;-59
2021/11/24 09:08:11;;;;;;;22.38;16.17;;;6.80;69.20;;;;;;4970602;28;20451;-58
2021/11/24 09:10:38;;;;;;;27.27;17.63;;;6.90;69.00;;;;;;4962064;28;20085;-58
2021/11/24 09:13:04;;;;;;;21.63;14.60;;;6.90;68.80;;;;;;4972258;28;20084;-59
2021/11/24 09:15:30;;;;;;;21.42;15.30;;;6.90;68.90;;;;;;4972191;28;20482;-59
2021/11/24 09:17:55;;;;;;;20.33;15.02;;;6.90;68.90;;;;;;4970415;28;21332;-59
2021/11/24 09:20:23;;;;;;;19.05;14.43;;;6.90;69.00;;;;;;4967276;28;20130;-59
2021/11/24 09:22:49;;;;;;;23.38;16.50;;;7.00;69.10;;;;;;4968845;28;20039;-59
2021/11/24 09:25:19;;;;;;;21.05;14.45;;;7.00;69.20;;;;;;4964009;28;20038;-59
2021/11/24 09:30:20;;;;;;;18.83;13.38;;;7.10;69.00;;;;;;4972798;28;20767;-59
2021/11/24 09:32:45;;;;;;;21.02;15.23;;;7.20;69.00;;;;;;4967812;28;20027;-59
2021/11/24 09:35:12;;;;;;;26.05;19.10;;;7.20;68.80;;;;;;4971583;28;20042;-60
2021/11/24 09:37:38;;;;;;;22.23;15.13;;;7.20;69.10;;;;;;4969638;28;20040;-58
2021/11/24 09:40:06;;;;;;;21.23;16.92;;;7.20;69.00;;;;;;4970420;28;20050;-59
2021/11/24 09:42:35;;;;;;;23.63;15.55;;;7.30;69.00;;;;;;4974548;28;20030;-59
2021/11/24 09:45:01;;;;;;;23.02;14.60;;;7.30;69.00;;;;;;4970903;28;20071;-59
2021/11/24 09:47:28;;;;;;;21.02;14.82;;;7.30;69.00;;;;;;4970433;28;20115;-58
2021/11/24 09:49:59;;;;;;;24.95;17.08;;;7.30;69.00;;;;;;4970080;28;21022;-60
2021/11/24 09:52:26;;;;;;;23.30;16.73;;;7.40;69.30;;;;;;4970708;28;20030;-58
2021/11/24 09:54:52;;;;;;;20.95;14.20;;;7.40;69.20;;;;;;4971089;28;20030;-58
2021/11/24 09:57:21;;;;;;;20.83;14.20;;;7.40;69.30;;;;;;4969844;28;20490;-59
2021/11/24 09:59:47;;;;;;;19.33;14.05;;;7.50;69.10;;;;;;4965791;28;20050;-58
2021/11/24 10:02:14;;;;;;;22.60;15.48;;;7.50;69.20;;;;;;4974570;28;20058;-59
2021/11/24 10:04:44;;;;;;;23.50;15.25;;;7.50;69.20;;;;;;4973235;28;20026;-60
2021/11/24 10:07:11;;;;;;;22.67;16.70;;;7.50;69.20;;;;;;4967140;28;22831;-59
2021/11/24 10:09:38;;;;;;;20.42;14.38;;;7.50;69.00;;;;;;4971932;28;20471;-59
2021/11/24 10:12:05;;;;;;;21.30;14.60;;;7.50;68.90;;;;;;4978786;28;20041;-59
2021/11/24 10:14:31;;;;;;;21.23;13.90;;;7.60;69.10;;;;;;4974741;28;20045;-59
2021/11/24 10:17:14;;;;;;;21.27;14.00;;;7.60;69.30;;;;;;4974364;28;20039;-57
2021/11/24 10:19:56;;;;;;;21.45;14.75;;;7.50;69.30;;;;;;4973610;28;20031;-59
2021/11/24 10:22:22;;;;;;;22.52;15.48;;;7.60;69.50;;;;;;4972957;28;20030;-59
2021/11/24 10:24:59;;;;;;;24.23;14.60;;;7.60;69.50;;;;;;4973057;28;20034;-59
2021/11/24 10:27:44;;;;;;;21.17;13.77;;;7.60;69.50;;;;;;4974838;28;20030;-58
2021/11/24 10:30:24;;;;;;;20.30;14.50;;;7.60;69.40;;;;;;4974527;28;20034;-59
2021/11/24 10:32:50;;;;;;;18.65;12.20;;;7.60;69.40;;;;;;4972467;28;20486;-59
2021/11/24 10:35:28;;;;;;;18.08;11.52;;;7.60;69.40;;;;;;4972886;28;20058;-58
2021/11/24 10:38:17;;;;;;;19.17;12.60;;;7.70;69.40;;;;;;4971994;28;20045;-60
2021/11/24 10:40:46;;;;;;;18.17;12.52;;;7.70;69.20;;;;;;4972398;28;20423;-59
2021/11/24 10:43:13;;;;;;;20.13;11.98;;;7.70;69.40;;;;;;4973361;28;20069;-60
2021/11/24 10:45:50;;;;;;;17.40;14.05;;;7.60;69.50;;;;;;4969112;28;20595;-60
2021/11/24 10:48:30;;;;;;;17.95;12.60;;;7.60;69.60;;;;;;4974868;28;20386;-59
2021/11/24 10:51:00;;;;;;;17.67;11.77;;;7.60;69.60;;;;;;4976019;28;20027;-60
2021/11/24 10:53:26;;;;;;;18.67;12.20;;;7.60;69.80;;;;;;4976494;28;20565;-59
2021/11/24 10:55:52;;;;;;;19.27;13.68;;;7.70;69.80;;;;;;4970188;28;20038;-59
2021/11/24 10:58:25;;;;;;;16.80;12.50;;;7.70;69.70;;;;;;4972194;28;20042;-58
2021/11/24 11:00:53;;;;;;;21.63;12.77;;;7.70;69.70;;;;;;4961915;28;20903;-58
2021/11/24 11:03:24;;;;;;;19.58;13.45;;;7.70;70.50;;;;;;4966359;28;20140;-58
2021/11/24 11:05:53;;;;;;;20.53;13.60;;;7.70;69.70;;;;;;4971009;28;20045;-58
2021/11/24 11:08:20;;;;;;;19.67;12.60;;;7.70;69.90;;;;;;4971540;28;21035;-59
2021/11/24 11:10:49;;;;;;;20.83;14.15;;;7.70;69.80;;;;;;4966226;28;20037;-59
2021/11/24 11:13:21;;;;;;;17.17;12.73;;;7.70;69.80;;;;;;4976206;28;20084;-59
2021/11/24 11:15:54;;;;;;;20.17;13.38;;;7.80;70.50;;;;;;4971643;28;20042;-58
2021/11/24 11:18:38;;;;;;;20.50;13.98;;;7.80;69.50;;;;;;4972149;28;20678;-59
2021/11/24 11:21:10;;;;;;;20.00;13.35;;;7.80;69.50;;;;;;4975420;28;20027;-59
2021/11/24 11:23:46;;;;;;;20.88;13.63;;;7.80;69.60;;;;;;4973750;28;20041;-58
2021/11/24 11:26:18;;;;;;;19.33;13.07;;;7.80;69.40;;;;;;4973274;28;20120;-59
2021/11/24 11:28:47;;;;;;;16.38;10.88;;;7.70;69.40;;;;;;4978823;28;20026;-57
2021/11/24 11:31:15;;;;;;;15.68;11.40;;;7.80;69.50;;;;;;4974909;28;20940;-58
2021/11/24 11:33:44;;;;;;;17.02;12.23;;;7.70;69.40;;;;;;4969439;28;20124;-59
2021/11/24 11:36:11;;;;;;;17.90;12.05;;;7.70;69.40;;;;;;4966064;28;20047;-59
2021/11/24 11:38:43;;;;;;;16.35;12.20;;;7.70;69.50;;;;;;4970921;28;20034;-59
2021/11/24 11:41:09;;;;;;;14.18;10.90;;;7.70;69.50;;;;;;4972464;28;20047;-59
2021/11/24 11:43:37;;;;;;;16.35;11.80;;;7.60;69.50;;;;;;4970533;28;20080;-59
2021/11/24 11:46:17;;;;;;;14.70;11.02;;;7.70;69.60;;;;;;4971037;28;20138;-58
2021/11/24 11:48:44;;;;;;;15.90;11.32;;;7.60;69.60;;;;;;4970618;28;20054;-59
2021/11/24 11:51:11;;;;;;;13.77;10.43;;;7.60;69.60;;;;;;4972967;28;20038;-60
2021/11/24 11:53:39;;;;;;;15.27;11.02;;;7.60;69.70;;;;;;4971294;28;20479;-59
2021/11/24 11:56:27;;;;;;;16.30;11.68;;;7.60;69.60;;;;;;4973520;28;20085;-60
2021/11/24 11:59:38;;;;;;;15.20;10.77;;;7.60;69.50;;;;;;4970392;28;20026;-59
2021/11/24 12:02:06;;;;;;;12.30;9.57;;;7.60;69.80;;;;;;4967162;28;20134;-59
2021/11/24 12:04:42;;;;;;;15.00;10.10;;;7.60;69.70;;;;;;4964785;28;20513;-60
2021/11/24 12:07:11;;;;;;;12.80;10.00;;;7.60;69.80;;;;;;4962470;28;20026;-59
2021/11/24 12:09:48;;;;;;;14.13;9.90;;;7.50;69.80;;;;;;4969684;28;20126;-60
2021/11/24 12:12:19;;;;;;;12.27;9.23;;;7.50;69.80;;;;;;4968152;28;20612;-59
2021/11/24 12:14:53;;;;;;;12.75;9.20;;;7.60;70.00;;;;;;4976794;28;20589;-60
2021/11/24 12:17:31;;;;;;;13.75;9.40;;;7.60;70.00;;;;;;4976785;28;20378;-60
2021/11/24 12:20:04;;;;;;;12.30;9.60;;;7.60;70.00;;;;;;4974960;28;20141;-59
2021/11/24 12:22:53;;;;;;;14.10;11.15;;;7.50;69.70;;;;;;4980776;28;20121;-57
2021/11/24 12:25:23;;;;;;;12.48;9.18;;;7.60;69.70;;;;;;4970678;28;20030;-59
2021/11/24 12:27:58;;;;;;;11.38;9.23;;;7.60;70.00;;;;;;4974432;28;20034;-59
2021/11/24 12:30:56;;;;;;;11.95;9.55;;;7.60;69.90;;;;;;4968570;28;20041;-59
2021/11/24 12:33:38;;;;;;;11.35;8.05;;;7.60;69.70;;;;;;4969575;28;20479;-59
2021/11/24 12:36:10;;;;;;;10.85;8.20;;;7.60;69.80;;;;;;4978473;28;20073;-59
2021/11/24 12:39:01;;;;;;;11.52;8.57;;;7.60;69.80;;;;;;4975157;28;20774;-59
2021/11/24 12:41:35;;;;;;;12.95;9.07;;;7.60;69.80;;;;;;4980279;28;20038;-59
2021/11/24 12:44:06;;;;;;;10.88;8.73;;;7.60;69.90;;;;;;4977384;28;20121;-60
2021/11/24 12:46:37;;;;;;;10.13;8.25;;;7.60;69.70;;;;;;4977862;28;20038;-60
2021/11/24 12:49:11;;;;;;;9.90;8.88;;;7.60;69.80;;;;;;4977771;28;20049;-60
2021/11/24 12:51:49;;;;;;;10.68;8.15;;;7.60;69.70;;;;;;4974919;28;20493;-59